createdAt,value
2022-11-12T00:01:00.946Z,10.25
2022-11-12T00:03:29.818Z,10.15
2022-11-12T00:05:57.379Z,9.07
2022-11-12T00:08:25.240Z,10.30
2022-11-12T00:10:53.113Z,11.50
2022-11-12T00:13:20.689Z,11.52
2022-11-12T00:15:48.655Z,9.23
2022-11-12T00:18:16.236Z,9.45
2022-11-12T00:20:45.420Z,8.88
2022-11-12T00:23:12.989Z,11.38
2022-11-12T00:25:40.534Z,12.45
2022-11-12T00:28:10.485Z,10.15
2022-11-12T00:30:39.666Z,11.57
2022-11-12T00:33:07.697Z,10.23
2022-11-12T00:35:36.159Z,12.40
2022-11-12T00:38:04.990Z,8.82
2022-11-12T00:40:32.525Z,8.38
2022-11-12T00:43:00.084Z,9.85
2022-11-12T00:45:27.652Z,10.77
2022-11-12T00:47:56.536Z,8.05
2022-11-12T00:50:24.401Z,8.45
2022-11-12T00:52:53.153Z,8.48
2022-11-12T00:55:22.155Z,8.25
2022-11-12T00:57:49.727Z,9.52
2022-11-12T01:00:19.432Z,8.80
2022-11-12T01:02:50.938Z,8.38
2022-11-12T01:05:19.764Z,6.30
2022-11-12T01:07:53.133Z,6.95
2022-11-12T01:10:23.814Z,6.70
2022-11-12T01:12:51.294Z,6.68
2022-11-12T01:15:18.862Z,7.13
2022-11-12T01:17:46.387Z,8.00
2022-11-12T01:20:14.061Z,5.78
2022-11-12T01:22:41.580Z,6.95
2022-11-12T01:25:09.403Z,5.53
2022-11-12T01:27:38.259Z,6.45
2022-11-12T01:30:06.985Z,9.23
2022-11-12T01:32:36.764Z,6.57
2022-11-12T01:35:04.571Z,8.25
2022-11-12T01:37:32.129Z,5.25
2022-11-12T01:39:59.675Z,4.40
2022-11-12T01:42:29.113Z,5.10
2022-11-12T01:44:58.008Z,5.95
2022-11-12T01:47:28.262Z,7.55
2022-11-12T01:49:59.350Z,6.45
2022-11-12T01:52:32.817Z,6.53
2022-11-12T01:55:05.325Z,5.82
2022-11-12T01:57:38.263Z,5.35
2022-11-12T02:00:10.282Z,6.45
2022-11-12T02:02:38.827Z,8.13
2022-11-12T02:05:09.520Z,7.70
2022-11-12T02:07:39.819Z,7.53
2022-11-12T02:10:09.961Z,6.32
2022-11-12T02:12:55.419Z,6.22
2022-11-12T02:15:24.377Z,7.05
2022-11-12T02:17:52.069Z,5.38
2022-11-12T02:20:19.947Z,5.80
2022-11-12T02:22:48.774Z,6.50
2022-11-12T02:25:19.901Z,6.50
2022-11-12T02:27:51.816Z,6.07
2022-11-12T02:30:19.883Z,5.68
2022-11-12T02:32:47.375Z,4.75
2022-11-12T02:35:15.038Z,7.22
2022-11-12T02:37:42.557Z,4.70
2022-11-12T02:40:12.042Z,4.25
2022-11-12T02:42:39.593Z,4.30
2022-11-12T02:45:07.746Z,4.47
2022-11-12T02:47:35.222Z,3.45
2022-11-12T02:50:02.817Z,3.33
2022-11-12T02:52:30.329Z,4.00
2022-11-12T02:54:57.863Z,3.38
2022-11-12T02:57:26.747Z,3.28
2022-11-12T02:59:54.235Z,3.85
2022-11-12T03:02:21.767Z,5.85
2022-11-12T03:04:49.752Z,3.60
2022-11-12T03:07:17.441Z,3.33
2022-11-12T03:09:44.999Z,3.78
2022-11-12T03:12:12.600Z,3.80
2022-11-12T03:14:41.460Z,3.47
2022-11-12T03:17:09.003Z,5.05
2022-11-12T03:19:36.514Z,5.65
2022-11-12T03:22:03.997Z,3.97
2022-11-12T03:24:31.489Z,3.95
2022-11-12T03:26:59.269Z,2.88
2022-11-12T03:29:27.208Z,3.80
2022-11-12T03:31:56.073Z,3.00
2022-11-12T03:34:23.699Z,6.57
2022-11-12T03:36:51.220Z,3.78
2022-11-12T03:39:18.784Z,3.78
2022-11-12T03:41:46.251Z,3.10
2022-11-12T03:44:13.812Z,3.65
2022-11-12T03:46:44.164Z,3.67
2022-11-12T03:49:13.459Z,4.95
2022-11-12T03:51:41.000Z,6.00
2022-11-12T03:54:08.675Z,4.68
2022-11-12T03:56:36.230Z,4.82
2022-11-12T03:59:04.174Z,4.88
2022-11-12T04:01:31.765Z,4.78
2022-11-12T04:03:59.338Z,4.93
2022-11-12T04:06:45.958Z,6.57
2022-11-12T04:09:13.608Z,7.32
2022-11-12T04:11:41.147Z,6.82
2022-11-12T04:14:07.707Z,9.73
2022-11-12T04:16:52.793Z,5.55
2022-11-12T04:19:38.099Z,3.97
2022-11-12T04:22:08.940Z,6.00
2022-11-12T04:24:55.836Z,5.63
2022-11-12T04:27:25.899Z,5.35
2022-11-12T04:30:12.196Z,5.30
2022-11-12T04:32:40.898Z,3.80
2022-11-12T04:35:09.862Z,4.55
2022-11-12T04:37:48.419Z,3.80
2022-11-12T04:40:40.503Z,3.20
2022-11-12T04:43:28.871Z,3.38
2022-11-12T04:45:57.505Z,3.10
2022-11-12T04:48:26.625Z,3.75
2022-11-12T04:50:56.555Z,3.40
2022-11-12T04:53:25.887Z,3.17
2022-11-12T04:55:54.230Z,4.97
2022-11-12T04:58:22.422Z,3.10
2022-11-12T05:00:51.202Z,3.72
2022-11-12T05:03:19.272Z,3.92
2022-11-12T05:05:46.825Z,3.88
2022-11-12T05:08:14.447Z,3.15
2022-11-12T05:10:43.378Z,3.72
2022-11-12T05:13:10.905Z,4.35
2022-11-12T05:15:38.444Z,4.00
2022-11-12T05:18:06.050Z,4.35
2022-11-12T05:20:33.662Z,4.93
2022-11-12T05:23:08.418Z,3.78
2022-11-12T05:25:36.273Z,10.35
2022-11-12T05:28:07.007Z,6.20
2022-11-12T05:30:35.546Z,5.40
2022-11-12T05:33:03.043Z,4.97
2022-11-12T05:35:30.613Z,5.10
2022-11-12T05:37:58.146Z,5.00
2022-11-12T05:40:25.709Z,4.13
2022-11-12T05:42:53.201Z,4.30
2022-11-12T05:45:22.070Z,3.85
2022-11-12T05:47:50.648Z,3.88
2022-11-12T05:50:18.466Z,4.43
2022-11-12T05:52:46.551Z,3.65
2022-11-12T05:55:14.139Z,3.78
2022-11-12T05:57:41.657Z,4.55
2022-11-12T06:00:10.901Z,4.93
2022-11-12T06:02:39.775Z,6.85
2022-11-12T06:05:08.044Z,4.07
2022-11-12T06:07:35.654Z,5.65
2022-11-12T06:10:03.189Z,3.63
2022-11-12T06:12:31.819Z,5.05
2022-11-12T06:15:00.015Z,4.03
2022-11-12T06:17:27.639Z,4.97
2022-11-12T06:19:56.569Z,3.55
2022-11-12T06:22:24.166Z,3.30
2022-11-12T06:24:51.741Z,4.63
2022-11-12T06:27:19.307Z,3.33
2022-11-12T06:29:46.875Z,3.75
2022-11-12T06:32:14.414Z,4.22
2022-11-12T06:34:42.072Z,4.25
2022-11-12T06:37:10.962Z,4.35
2022-11-12T06:39:38.515Z,4.72
2022-11-12T06:42:06.232Z,4.63
2022-11-12T06:44:33.791Z,4.03
2022-11-12T06:47:02.606Z,4.72
2022-11-12T06:49:30.331Z,4.13
2022-11-12T06:51:57.958Z,4.45
2022-11-12T06:54:27.411Z,3.13
2022-11-12T06:56:55.594Z,3.72
2022-11-12T06:59:24.171Z,4.10
2022-11-12T07:01:51.740Z,3.60
2022-11-12T07:07:22.205Z,3.97
2022-11-12T07:32:51.914Z,5.82
2022-11-12T07:43:13.649Z,6.90
2022-11-12T07:45:41.218Z,6.75
2022-11-12T07:48:10.200Z,10.55
2022-11-12T07:50:37.809Z,7.40
2022-11-12T07:53:05.439Z,6.05
2022-11-12T07:55:33.061Z,5.72
2022-11-12T07:58:01.043Z,6.30
2022-11-12T08:00:28.617Z,5.18
2022-11-12T08:02:56.167Z,5.03
2022-11-12T08:05:25.171Z,5.32
2022-11-12T08:07:52.819Z,7.30
2022-11-12T08:10:20.465Z,4.80
2022-11-12T08:12:47.987Z,5.47
2022-11-12T08:15:16.190Z,6.05
2022-11-12T08:17:43.867Z,5.93
2022-11-12T08:20:12.480Z,6.03
2022-11-12T08:22:46.379Z,5.63
2022-11-12T08:25:17.124Z,5.03
2022-11-12T08:27:45.842Z,6.38
2022-11-12T08:30:15.559Z,5.80
2022-11-12T08:32:44.405Z,5.50
2022-11-12T08:35:13.534Z,4.90
2022-11-12T08:37:43.463Z,4.63
2022-11-12T08:40:13.572Z,4.40
2022-11-12T08:42:42.590Z,6.63
2022-11-12T08:45:11.664Z,6.85
2022-11-12T08:47:43.214Z,6.80
2022-11-12T08:50:12.330Z,6.88
2022-11-12T08:52:43.767Z,6.38
2022-11-12T08:55:11.389Z,5.15
2022-11-12T08:57:42.222Z,5.57
2022-11-12T09:00:11.092Z,4.53
2022-11-12T09:02:39.386Z,5.90
2022-11-12T09:05:07.918Z,6.72
2022-11-12T09:07:49.484Z,5.75
2022-11-12T09:12:52.182Z,7.30
2022-11-12T09:18:12.089Z,5.20
2022-11-12T09:20:39.793Z,5.95
2022-11-12T09:23:09.136Z,4.80
2022-11-12T09:25:38.581Z,5.25
2022-11-12T09:28:10.621Z,4.22
2022-11-12T09:30:39.486Z,3.75
2022-11-12T09:33:07.081Z,3.72
2022-11-12T09:35:34.671Z,3.47
2022-11-12T09:38:02.247Z,3.50
2022-11-12T09:40:42.515Z,5.40
2022-11-12T09:43:18.170Z,6.13
2022-11-12T09:46:00.318Z,3.25
2022-11-12T09:48:40.757Z,4.25
2022-11-12T09:51:14.394Z,3.53
2022-11-12T09:53:49.015Z,3.55
2022-11-12T09:56:20.978Z,3.65
2022-11-12T09:58:48.947Z,2.92
2022-11-12T10:01:20.610Z,3.67
2022-11-12T10:03:56.765Z,2.80
2022-11-12T10:06:37.773Z,2.97
2022-11-12T10:09:10.304Z,3.80
2022-11-12T10:12:16.710Z,8.07
2022-11-12T10:15:22.501Z,5.68
2022-11-12T10:17:55.949Z,4.88
2022-11-12T10:20:33.567Z,4.38
2022-11-12T10:23:17.013Z,4.18
2022-11-12T10:25:49.638Z,4.82
2022-11-12T10:28:35.670Z,4.68
2022-11-12T10:31:12.608Z,4.43
2022-11-12T10:33:40.131Z,4.97
2022-11-12T10:36:27.488Z,5.75
2022-11-12T10:38:56.352Z,4.10
2022-11-12T10:41:26.897Z,4.90
2022-11-12T10:43:58.251Z,5.03
2022-11-12T10:46:27.604Z,4.75
2022-11-12T10:48:58.761Z,4.40
2022-11-12T10:51:28.834Z,5.53
2022-11-12T10:53:56.420Z,4.75
2022-11-12T10:56:29.882Z,4.78
2022-11-12T10:59:15.089Z,4.10
2022-11-12T11:01:45.957Z,4.60
2022-11-12T11:04:20.260Z,3.88
2022-11-12T11:06:47.915Z,4.95
2022-11-12T11:09:20.536Z,4.05
2022-11-12T11:11:53.960Z,4.32
2022-11-12T11:14:28.553Z,3.92
2022-11-12T11:16:59.420Z,3.80
2022-11-12T11:19:33.674Z,4.05
2022-11-12T11:22:21.795Z,3.75
2022-11-12T11:24:58.106Z,3.50
2022-11-12T11:27:32.055Z,3.83
2022-11-12T11:30:11.393Z,3.67
2022-11-12T11:33:01.208Z,2.90
2022-11-12T11:35:36.207Z,2.92
2022-11-12T11:38:22.107Z,3.70
2022-11-12T11:40:57.720Z,3.42
2022-11-12T11:43:38.323Z,3.42
2022-11-12T11:46:18.207Z,5.07
2022-11-12T11:48:58.290Z,3.08
2022-11-12T11:51:42.831Z,3.28
2022-11-12T11:54:25.960Z,4.63
2022-11-12T11:56:59.204Z,3.35
2022-11-12T11:59:40.026Z,4.03
2022-11-12T12:02:40.055Z,3.22
2022-11-12T12:05:23.663Z,3.22
2022-11-12T12:07:59.105Z,3.05
2022-11-12T12:10:46.570Z,6.07
2022-11-12T12:13:28.560Z,4.90
2022-11-12T12:16:17.866Z,4.90
2022-11-12T12:18:52.713Z,3.40
2022-11-12T12:21:22.240Z,3.22
2022-11-12T12:23:53.473Z,3.80
2022-11-12T12:26:26.497Z,3.72
2022-11-12T12:28:57.649Z,4.47
2022-11-12T12:31:30.471Z,4.35
2022-11-12T12:34:04.298Z,3.35
2022-11-12T12:36:37.515Z,3.65
2022-11-12T12:39:14.850Z,3.63
2022-11-12T12:41:50.126Z,3.08
2022-11-12T12:44:17.640Z,4.25
2022-11-12T12:46:48.745Z,5.10
2022-11-12T12:49:23.491Z,3.60
2022-11-12T12:51:55.597Z,3.58
2022-11-12T12:54:55.503Z,4.38
2022-11-12T12:57:35.684Z,3.35
2022-11-12T13:00:28.488Z,3.50
2022-11-12T13:02:56.315Z,3.28
2022-11-12T13:05:28.695Z,3.22
2022-11-12T13:07:59.423Z,3.47
2022-11-12T13:10:54.785Z,4.25
2022-11-12T13:13:34.312Z,5.40
2022-11-12T13:16:03.275Z,3.88
2022-11-12T13:19:02.362Z,4.15
2022-11-12T13:21:31.433Z,4.53
2022-11-12T13:24:11.035Z,4.03
2022-11-12T13:26:54.315Z,3.58
2022-11-12T13:29:46.871Z,3.67
2022-11-12T13:32:41.778Z,5.05
2022-11-12T13:35:30.113Z,4.32
2022-11-12T13:38:05.572Z,5.70
2022-11-12T13:40:52.502Z,3.95
2022-11-12T13:43:34.613Z,4.82
2022-11-12T13:46:26.926Z,5.10
2022-11-12T13:49:00.536Z,6.72
2022-11-12T13:51:39.015Z,5.72
2022-11-12T13:54:30.622Z,5.03
2022-11-12T13:57:14.493Z,3.97
2022-11-12T13:59:42.191Z,4.95
2022-11-12T14:02:21.953Z,5.35
2022-11-12T14:04:50.175Z,5.00
2022-11-12T14:07:38.433Z,4.25
2022-11-12T14:10:16.659Z,4.47
2022-11-12T14:13:00.191Z,3.53
2022-11-12T14:15:46.155Z,3.33
2022-11-12T14:18:22.396Z,3.20
2022-11-12T14:20:50.202Z,3.45
2022-11-12T14:23:24.836Z,3.35
2022-11-12T14:25:56.388Z,2.63
2022-11-12T14:28:29.522Z,2.80
2022-11-12T14:30:58.477Z,3.05
2022-11-12T14:33:27.823Z,4.28
2022-11-12T14:35:56.213Z,3.05
2022-11-12T14:38:28.425Z,2.80
2022-11-12T14:41:00.707Z,3.05
2022-11-12T14:43:34.282Z,3.25
2022-11-12T14:46:04.165Z,3.03
2022-11-12T14:48:37.211Z,3.35
2022-11-12T14:51:10.100Z,3.65
2022-11-12T14:53:42.164Z,5.50
2022-11-12T14:56:20.589Z,3.20
2022-11-12T14:58:48.245Z,3.88
2022-11-12T15:02:08.426Z,3.70
2022-11-12T15:04:19.756Z,4.93
2022-11-12T15:06:53.807Z,4.53
2022-11-12T15:09:34.549Z,3.83
2022-11-12T15:12:05.171Z,4.05
2022-11-12T15:14:34.436Z,3.70
2022-11-12T15:17:05.481Z,4.03
2022-11-12T15:19:33.414Z,3.70
2022-11-12T15:22:02.792Z,4.50
2022-11-12T15:24:32.481Z,4.35
2022-11-12T15:27:02.403Z,3.97
2022-11-12T15:29:33.628Z,3.55
2022-11-12T15:32:03.701Z,4.10
2022-11-12T15:34:35.393Z,3.83
2022-11-12T15:37:06.447Z,4.07
2022-11-12T15:39:39.847Z,4.63
2022-11-12T15:42:16.685Z,3.63
2022-11-12T15:44:46.911Z,4.65
2022-11-12T15:47:21.083Z,3.80
2022-11-12T15:49:50.567Z,7.20
2022-11-12T15:52:18.198Z,5.20
2022-11-12T15:54:46.422Z,4.15
2022-11-12T15:57:17.460Z,4.13
2022-11-12T15:59:52.090Z,4.90
2022-11-12T16:02:19.716Z,7.07
2022-11-12T16:04:47.272Z,3.97
2022-11-12T16:07:14.914Z,3.92
2022-11-12T16:09:42.478Z,3.50
2022-11-12T16:12:12.868Z,4.10
2022-11-12T16:14:40.793Z,16.15
2022-11-12T16:17:14.494Z,7.15
2022-11-12T16:19:42.265Z,5.15
2022-11-12T16:22:13.238Z,5.38
2022-11-12T16:24:41.035Z,4.38
2022-11-12T16:27:11.429Z,4.88
2022-11-12T16:29:38.954Z,4.15
2022-11-12T16:32:06.994Z,5.03
2022-11-12T16:34:35.998Z,4.38
2022-11-12T16:37:03.927Z,4.63
2022-11-12T16:39:31.539Z,4.80
2022-11-12T16:41:59.079Z,4.32
2022-11-12T16:44:26.623Z,4.18
2022-11-12T16:46:54.121Z,4.70
2022-11-12T16:49:22.211Z,5.05
2022-11-12T16:51:51.099Z,5.70
2022-11-12T16:54:18.842Z,4.45
2022-11-12T16:56:46.391Z,5.07
2022-11-12T16:59:14.814Z,6.18
2022-11-12T17:01:44.040Z,4.68
2022-11-12T17:04:11.608Z,4.57
2022-11-12T17:06:40.997Z,5.97
2022-11-12T17:09:12.499Z,5.13
2022-11-12T17:11:40.006Z,4.82
2022-11-12T17:14:07.894Z,5.18
2022-11-12T17:16:35.571Z,4.82
2022-11-12T17:19:03.611Z,6.07
2022-11-12T17:21:31.383Z,6.07
2022-11-12T17:23:58.896Z,5.47
2022-11-12T17:26:27.745Z,5.88
2022-11-12T17:29:01.055Z,5.85
2022-11-12T17:31:31.235Z,4.90
2022-11-12T17:33:58.827Z,5.07
2022-11-12T17:36:28.431Z,11.15
2022-11-12T17:38:56.876Z,11.07
2022-11-12T17:41:25.295Z,5.90
2022-11-12T17:43:56.197Z,4.90
2022-11-12T17:46:23.855Z,6.65
2022-11-12T17:48:51.597Z,6.40
2022-11-12T17:51:20.930Z,5.85
2022-11-12T17:53:48.918Z,7.47
2022-11-12T17:56:18.831Z,8.25
2022-11-12T17:58:47.260Z,7.25
2022-11-12T18:01:18.797Z,19.65
2022-11-12T18:03:50.095Z,7.88
2022-11-12T18:06:19.496Z,7.93
2022-11-12T18:08:47.454Z,8.88
2022-11-12T18:11:16.051Z,6.13
2022-11-12T18:13:43.685Z,5.90
2022-11-12T18:16:16.897Z,7.63
2022-11-12T18:18:44.972Z,5.90
2022-11-12T18:21:12.882Z,6.07
2022-11-12T18:23:41.979Z,6.03
2022-11-12T18:26:09.463Z,6.70
2022-11-12T18:28:37.146Z,7.47
2022-11-12T18:31:07.186Z,6.25
2022-11-12T18:33:37.559Z,7.22
2022-11-12T18:36:07.727Z,6.15
2022-11-12T18:38:36.161Z,12.77
2022-11-12T18:41:05.441Z,8.02
2022-11-12T18:43:34.212Z,8.05
2022-11-12T18:51:27.314Z,8.52
2022-11-12T18:54:00.258Z,6.22
2022-11-12T18:59:03.901Z,8.13
2022-11-12T19:04:38.833Z,7.05
2022-11-12T19:07:19.747Z,6.93
2022-11-12T19:09:47.952Z,5.68
2022-11-12T19:12:17.772Z,6.18
2022-11-12T19:14:47.729Z,6.65
2022-11-12T19:20:21.743Z,9.23
2022-11-12T19:22:54.440Z,21.38
2022-11-12T19:28:13.984Z,9.23
2022-11-12T19:30:42.106Z,10.45
2022-11-12T19:35:53.079Z,7.35
2022-11-12T19:38:25.973Z,7.32
2022-11-12T19:40:58.326Z,6.80
2022-11-12T19:43:27.383Z,8.18
2022-11-12T19:45:56.816Z,5.88
2022-11-12T19:48:25.280Z,5.65
2022-11-12T19:50:53.420Z,6.40
2022-11-12T19:53:22.268Z,5.38
2022-11-12T19:55:49.829Z,5.32
2022-11-12T19:58:17.391Z,5.93
2022-11-12T20:00:44.897Z,4.90
2022-11-12T20:03:12.451Z,6.20
2022-11-12T20:05:40.000Z,5.15
2022-11-12T20:08:07.587Z,5.15
2022-11-12T20:10:36.461Z,8.68
2022-11-12T20:13:04.019Z,6.50
2022-11-12T20:15:31.520Z,4.95
2022-11-12T20:17:59.038Z,6.32
2022-11-12T20:20:26.543Z,7.00
2022-11-12T20:22:54.063Z,6.00
2022-11-12T20:25:21.603Z,5.32
2022-11-12T20:27:50.442Z,8.93
2022-11-12T20:30:18.460Z,5.07
2022-11-12T20:32:45.998Z,6.03
2022-11-12T20:35:19.284Z,5.95
2022-11-12T20:37:50.020Z,5.18
2022-11-12T20:40:17.829Z,6.82
2022-11-12T20:42:45.869Z,5.00
2022-11-12T20:45:14.758Z,5.88
2022-11-12T20:47:42.289Z,7.65
2022-11-12T20:50:10.065Z,5.25
2022-11-12T20:52:37.630Z,4.55
2022-11-12T20:55:05.644Z,5.20
2022-11-12T20:57:33.140Z,4.80
2022-11-12T21:00:00.920Z,5.00
2022-11-12T21:02:29.762Z,4.88
2022-11-12T21:04:57.287Z,3.85
2022-11-12T21:07:24.861Z,3.78
2022-11-12T21:09:52.475Z,3.47
2022-11-12T21:12:20.006Z,4.60
2022-11-12T21:14:50.453Z,3.83
2022-11-12T21:17:19.687Z,4.50
2022-11-12T21:19:48.538Z,4.28
2022-11-12T21:22:17.118Z,3.88
2022-11-12T21:24:44.674Z,4.07
2022-11-12T21:27:12.375Z,4.10
2022-11-12T21:29:39.905Z,4.10
2022-11-12T21:32:07.608Z,4.10
2022-11-12T21:34:35.160Z,4.13
2022-11-12T21:37:04.024Z,6.07
2022-11-12T21:39:31.611Z,5.25
2022-11-12T21:41:59.212Z,6.07
2022-11-12T21:44:26.791Z,4.13
2022-11-12T21:46:54.306Z,4.22
2022-11-12T21:49:21.874Z,5.68
2022-11-12T21:51:49.422Z,5.43
2022-11-12T21:54:18.342Z,5.80
2022-11-12T21:56:45.891Z,5.15
2022-11-12T21:59:13.421Z,5.60
2022-11-12T22:01:41.902Z,5.47
2022-11-12T22:04:11.847Z,5.85
2022-11-12T22:06:41.797Z,5.47
2022-11-12T22:09:09.541Z,7.00
2022-11-12T22:11:38.477Z,7.10
2022-11-12T22:14:06.010Z,19.13
2022-11-12T22:16:33.554Z,7.70
2022-11-12T22:19:01.239Z,7.30
2022-11-12T22:21:34.134Z,8.55
2022-11-12T22:24:04.946Z,10.10
2022-11-12T22:26:32.525Z,8.30
2022-11-12T22:29:01.704Z,9.00
2022-11-12T22:31:31.078Z,8.45
2022-11-12T22:34:00.458Z,8.77
2022-11-12T22:36:29.901Z,7.25
2022-11-12T22:38:57.887Z,8.57
2022-11-12T22:41:27.025Z,8.40
2022-11-12T22:43:55.872Z,9.45
2022-11-12T22:46:26.404Z,7.38
2022-11-12T22:48:54.509Z,7.00
2022-11-12T22:51:23.612Z,6.85
2022-11-12T22:53:55.564Z,6.78
2022-11-12T22:56:23.961Z,6.50
2022-11-12T22:58:51.979Z,6.70
2022-11-12T23:01:21.690Z,6.20
2022-11-12T23:03:51.703Z,5.75
2022-11-12T23:06:19.694Z,6.47
2022-11-12T23:08:47.288Z,7.50
2022-11-12T23:11:16.883Z,5.63
2022-11-12T23:13:45.292Z,5.93
2022-11-12T23:16:15.280Z,6.40
2022-11-12T23:18:43.245Z,7.68
2022-11-12T23:21:14.007Z,7.25
2022-11-12T23:23:41.748Z,6.13
2022-11-12T23:26:12.392Z,6.10
2022-11-12T23:28:39.990Z,6.50
2022-11-12T23:31:14.340Z,6.88
2022-11-12T23:33:45.199Z,7.07
2022-11-12T23:36:14.262Z,6.32
2022-11-12T23:38:41.975Z,6.93
2022-11-12T23:41:11.622Z,6.60
2022-11-12T23:43:39.230Z,6.97
2022-11-12T23:46:07.005Z,6.38
2022-11-12T23:48:34.581Z,6.90
2022-11-12T23:51:04.567Z,7.20
2022-11-12T23:53:34.767Z,8.07
2022-11-12T23:56:02.980Z,7.57
2022-11-12T23:58:31.551Z,8.57
